Time;durP1;ratioP1;P1;durP2;ratioP2;P2;SDS_P1;SDS_P2;PMS_P1;PMS_P2;Temp;Humidity;BMP_temperature;BMP_pressure;BME280_temperature;BME280_humidity;BME280_pressure;Samples;Min_cycle;Max_cycle;Signal;HPM_P1;HPM_P2
2022/09/06 00:00:37;;;;;;;4.68;3.63;;;20.80;96.00;;;;;;5108768;28;20032;-80
2022/09/06 00:03:03;;;;;;;8.05;3.97;;;20.80;96.00;;;;;;5095097;28;20409;-81
2022/09/06 00:05:30;;;;;;;6.22;3.90;;;20.70;96.10;;;;;;5109877;28;20051;-79
2022/09/06 00:08:00;;;;;;;5.50;4.10;;;20.70;96.10;;;;;;5112144;28;20455;-80
2022/09/06 00:10:27;;;;;;;5.97;4.05;;;20.60;96.10;;;;;;5108542;28;20067;-79
2022/09/06 00:12:53;;;;;;;4.40;3.60;;;20.60;96.20;;;;;;5108519;28;20545;-80
2022/09/06 00:15:19;;;;;;;6.63;3.78;;;20.60;96.20;;;;;;5104324;28;20048;-80
2022/09/06 00:17:45;;;;;;;5.40;3.83;;;20.50;96.20;;;;;;5102516;28;20107;-79
2022/09/06 00:20:11;;;;;;;5.88;3.65;;;20.50;96.30;;;;;;5108313;28;20119;-79
2022/09/06 00:22:37;;;;;;;6.60;3.88;;;20.50;96.30;;;;;;5102908;28;20043;-79
2022/09/06 00:25:05;;;;;;;5.50;3.90;;;20.50;96.30;;;;;;5107746;28;20089;-79
2022/09/06 00:27:31;;;;;;;5.72;3.92;;;20.40;96.30;;;;;;5111605;28;20443;-80
2022/09/06 00:29:56;;;;;;;8.88;4.28;;;20.40;96.40;;;;;;5086124;28;20032;-79
2022/09/06 00:32:22;;;;;;;7.35;4.07;;;20.30;96.40;;;;;;5099916;28;20032;-79
2022/09/06 00:34:47;;;;;;;7.15;4.32;;;20.30;96.50;;;;;;5111515;28;20080;-80
2022/09/06 00:37:13;;;;;;;5.90;3.70;;;20.30;96.60;;;;;;5105418;28;20035;-81
2022/09/06 00:39:39;;;;;;;6.57;3.90;;;20.20;96.90;;;;;;5102609;28;20035;-81
2022/09/06 00:42:09;;;;;;;6.18;3.53;;;20.10;96.60;;;;;;5108016;28;20554;-81
2022/09/06 00:44:35;;;;;;;5.45;3.92;;;20.10;96.70;;;;;;5106825;28;20040;-81
2022/09/06 00:47:01;;;;;;;5.65;3.92;;;20.10;96.90;;;;;;5105751;28;20405;-80
2022/09/06 00:49:31;;;;;;;6.78;4.00;;;20.10;97.00;;;;;;5110960;28;20453;-80
2022/09/06 00:52:04;;;;;;;5.05;3.80;;;20.10;97.10;;;;;;5106688;28;20101;-81
2022/09/06 00:54:30;;;;;;;6.85;4.22;;;20.00;97.10;;;;;;5105739;28;20053;-81
2022/09/06 00:56:57;;;;;;;6.22;3.95;;;20.00;97.10;;;;;;5093665;28;20035;-81
2022/09/06 00:59:24;;;;;;;4.85;3.83;;;19.90;97.20;;;;;;5108967;28;20036;-81
2022/09/06 01:01:51;;;;;;;6.10;4.10;;;19.80;97.30;;;;;;5106997;28;20028;-80
2022/09/06 01:04:17;;;;;;;6.03;4.10;;;19.80;97.50;;;;;;5087599;28;20043;-80
2022/09/06 01:07:01;;;;;;;6.47;4.60;;;19.80;97.50;;;;;;5104615;28;20032;-80
2022/09/06 01:09:54;;;;;;;6.30;3.97;;;19.80;97.60;;;;;;5105663;28;20050;-81
2022/09/06 01:12:20;;;;;;;6.53;4.50;;;19.70;97.60;;;;;;5107512;28;20130;-81
2022/09/06 01:15:06;;;;;;;6.82;4.43;;;19.60;97.60;;;;;;5100643;28;20118;-81
2022/09/06 01:17:53;;;;;;;5.72;4.18;;;19.70;97.70;;;;;;5109062;28;20044;-81
2022/09/06 01:20:24;;;;;;;8.25;4.30;;;19.60;98.00;;;;;;5100198;28;20039;-80
2022/09/06 01:23:11;;;;;;;4.93;4.07;;;19.50;98.10;;;;;;5102459;28;20145;-81
2022/09/06 01:25:55;;;;;;;6.13;4.53;;;19.60;98.30;;;;;;5104018;28;20510;-80
2022/09/06 01:28:21;;;;;;;5.20;4.10;;;19.50;98.30;;;;;;5104232;28;20047;-81
2022/09/06 01:30:52;;;;;;;7.45;4.55;;;19.60;98.40;;;;;;5104352;28;20054;-81
2022/09/06 01:33:34;;;;;;;7.38;4.70;;;19.50;98.50;;;;;;5102552;28;20122;-80
2022/09/06 01:36:03;;;;;;;6.22;4.50;;;19.50;98.60;;;;;;5101748;28;20039;-80
2022/09/06 01:38:29;;;;;;;5.38;4.13;;;19.50;98.50;;;;;;5108369;28;20047;-81
2022/09/06 01:40:54;;;;;;;7.28;4.35;;;19.50;98.40;;;;;;5088328;28;20027;-81
2022/09/06 01:43:29;;;;;;;6.35;4.72;;;19.50;98.50;;;;;;5105812;28;20077;-80
2022/09/06 01:46:02;;;;;;;7.07;5.00;;;19.50;98.60;;;;;;5104979;28;20078;-80
2022/09/06 01:49:01;;;;;;;6.22;4.47;;;19.50;98.60;;;;;;5106292;28;20031;-80
2022/09/06 01:51:52;;;;;;;9.35;5.38;;;19.50;98.60;;;;;;5096764;28;20044;-82
2022/09/06 01:54:30;;;;;;;6.75;4.50;;;19.50;98.70;;;;;;5106182;28;20099;-80
2022/09/06 01:57:21;;;;;;;8.45;4.93;;;19.50;98.60;;;;;;5102803;28;20088;-80
2022/09/06 02:00:10;;;;;;;9.43;4.70;;;19.50;98.80;;;;;;5103338;28;20070;-79
2022/09/06 02:02:55;;;;;;;7.90;4.88;;;19.50;98.80;;;;;;5106729;28;20039;-80
2022/09/06 02:05:27;;;;;;;9.60;4.65;;;19.50;98.70;;;;;;5111205;28;20052;-80
2022/09/06 02:07:57;;;;;;;6.57;4.72;;;19.40;98.60;;;;;;5104889;28;20489;-80
2022/09/06 02:10:35;;;;;;;7.10;4.78;;;19.40;98.70;;;;;;5101178;28;20043;-80
2022/09/06 02:13:04;;;;;;;8.80;4.28;;;19.40;98.80;;;;;;5093954;28;20075;-81
2022/09/06 02:15:38;;;;;;;6.90;4.57;;;19.40;98.80;;;;;;5102592;28;20039;-81
2022/09/06 02:18:08;;;;;;;7.05;4.90;;;19.40;98.90;;;;;;5093750;28;20036;-80
2022/09/06 02:20:40;;;;;;;8.60;4.68;;;19.40;98.80;;;;;;5102968;28;20080;-81
2022/09/06 02:23:07;;;;;;;8.10;4.63;;;19.40;98.90;;;;;;5108999;28;20047;-81
2022/09/06 02:25:38;;;;;;;5.47;4.90;;;19.40;99.00;;;;;;5086316;28;20043;-81
2022/09/06 02:28:06;;;;;;;7.05;4.88;;;19.40;99.10;;;;;;5103475;28;20066;-81
2022/09/06 02:30:36;;;;;;;6.40;4.63;;;19.30;99.30;;;;;;5105132;28;20090;-80
2022/09/06 02:33:25;;;;;;;7.60;4.50;;;19.40;99.50;;;;;;5109850;28;20553;-81
2022/09/06 02:35:52;;;;;;;7.85;5.03;;;19.30;99.50;;;;;;5107131;28;20032;-81
2022/09/06 02:38:22;;;;;;;10.07;5.00;;;19.30;99.60;;;;;;5109665;28;20032;-80
2022/09/06 02:40:50;;;;;;;8.07;4.88;;;19.30;99.60;;;;;;5101700;28;20047;-81
2022/09/06 02:43:16;;;;;;;6.70;5.13;;;19.30;99.60;;;;;;5112746;28;20040;-80
2022/09/06 02:45:41;;;;;;;6.35;5.05;;;19.30;99.60;;;;;;5108119;28;20057;-80
2022/09/06 02:48:07;;;;;;;10.02;5.38;;;19.20;99.60;;;;;;5113603;28;20521;-80
2022/09/06 02:50:32;;;;;;;7.95;5.10;;;19.20;99.70;;;;;;5110413;27;20040;-80
2022/09/06 02:53:24;;;;;;;7.10;4.80;;;19.20;99.70;;;;;;5098254;28;20046;-80
2022/09/06 02:55:50;;;;;;;7.45;4.97;;;19.20;99.80;;;;;;5105657;28;20405;-80
2022/09/06 02:58:15;;;;;;;7.40;5.30;;;19.20;99.70;;;;;;5091655;28;20035;-80
2022/09/06 03:00:42;;;;;;;8.73;5.30;;;19.10;99.70;;;;;;5111246;28;20085;-80
2022/09/06 03:03:08;;;;;;;5.75;5.07;;;19.10;99.70;;;;;;5103634;28;20047;-80
2022/09/06 03:05:34;;;;;;;11.40;5.25;;;19.10;99.80;;;;;;5091813;28;20051;-79
2022/09/06 03:07:59;;;;;;;8.18;4.85;;;19.00;99.80;;;;;;5107379;28;20107;-79
2022/09/06 03:10:25;;;;;;;5.78;4.93;;;19.00;99.80;;;;;;5103980;28;20405;-80
2022/09/06 03:12:51;;;;;;;5.63;5.00;;;18.90;99.80;;;;;;5094808;28;20050;-79
2022/09/06 03:15:17;;;;;;;6.75;4.93;;;18.90;99.80;;;;;;5110135;28;20044;-79
2022/09/06 03:17:43;;;;;;;6.85;4.70;;;18.90;99.90;;;;;;5111728;28;20031;-79
2022/09/06 03:20:09;;;;;;;6.90;5.03;;;18.90;99.90;;;;;;5112963;28;20110;-80
2022/09/06 03:22:36;;;;;;;7.90;5.10;;;18.80;99.90;;;;;;5113836;28;20039;-80
2022/09/06 03:25:02;;;;;;;6.35;5.18;;;18.80;99.90;;;;;;5103780;28;20126;-79
2022/09/06 03:27:28;;;;;;;5.75;5.20;;;18.80;99.90;;;;;;5112161;28;20120;-79
2022/09/06 03:29:53;;;;;;;6.60;5.20;;;18.80;99.90;;;;;;5106660;28;20050;-79
2022/09/06 03:32:19;;;;;;;6.15;5.28;;;18.80;99.90;;;;;;5107805;28;20047;-80
2022/09/06 03:34:44;;;;;;;5.65;5.10;;;18.70;99.90;;;;;;5106321;28;20027;-81
2022/09/06 03:37:10;;;;;;;6.00;5.05;;;18.70;99.90;;;;;;5112419;28;20040;-80
2022/09/06 03:39:35;;;;;;;5.63;5.07;;;18.70;99.90;;;;;;5105904;28;20402;-79
2022/09/06 03:42:01;;;;;;;5.88;4.88;;;18.70;99.90;;;;;;5102858;28;20043;-80
2022/09/06 03:44:27;;;;;;;7.35;5.70;;;18.70;99.90;;;;;;5108501;28;20042;-80
2022/09/06 03:46:52;;;;;;;7.97;5.57;;;18.70;99.90;;;;;;5111717;28;20043;-78
2022/09/06 03:49:18;;;;;;;5.97;4.97;;;18.70;99.90;;;;;;5104005;28;20104;-78
2022/09/06 03:51:43;;;;;;;8.50;5.50;;;18.70;99.90;;;;;;5109811;28;20027;-80
2022/09/06 03:54:09;;;;;;;10.20;6.10;;;18.70;99.90;;;;;;5108686;28;20036;-80
2022/09/06 03:56:34;;;;;;;9.77;5.95;;;18.70;99.90;;;;;;5104584;28;20047;-79
2022/09/06 03:59:00;;;;;;;7.55;6.28;;;18.70;99.90;;;;;;5107997;28;20039;-79
2022/09/06 04:01:25;;;;;;;8.90;6.47;;;18.60;99.90;;;;;;5112747;28;20036;-79
2022/09/06 04:03:51;;;;;;;7.15;6.05;;;18.60;99.90;;;;;;5099281;28;20044;-80
2022/09/06 04:06:17;;;;;;;8.63;6.60;;;18.60;99.90;;;;;;5103265;28;20035;-79
2022/09/06 04:08:42;;;;;;;8.77;7.00;;;18.60;99.90;;;;;;5088737;28;20043;-80
2022/09/06 04:11:08;;;;;;;10.20;6.70;;;18.70;99.90;;;;;;5109971;28;20050;-78
2022/09/06 04:13:35;;;;;;;9.68;7.00;;;18.60;99.90;;;;;;5110826;28;20043;-80
2022/09/06 04:16:01;;;;;;;8.98;6.50;;;18.60;99.90;;;;;;5110717;28;20062;-79
2022/09/06 04:18:27;;;;;;;9.48;7.30;;;18.60;99.90;;;;;;5105333;28;20429;-79
2022/09/06 04:20:57;;;;;;;7.15;6.20;;;18.60;99.90;;;;;;5093911;28;20168;-78
2022/09/06 04:23:25;;;;;;;7.07;6.38;;;18.60;99.90;;;;;;5109208;28;20117;-80
2022/09/06 04:25:54;;;;;;;7.20;6.38;;;18.60;99.90;;;;;;5109149;28;20354;-79
2022/09/06 04:28:20;;;;;;;9.93;6.20;;;18.60;99.90;;;;;;5110504;28;20050;-79
2022/09/06 04:30:58;;;;;;;6.38;5.60;;;18.60;99.90;;;;;;5107068;28;20039;-80
2022/09/06 04:33:24;;;;;;;9.13;6.28;;;18.60;99.90;;;;;;5105587;28;20130;-80
2022/09/06 04:35:51;;;;;;;10.20;6.65;;;18.70;99.90;;;;;;5092498;28;20040;-80
2022/09/06 04:38:17;;;;;;;7.63;6.13;;;18.70;99.90;;;;;;5106700;28;20071;-80
2022/09/06 04:40:42;;;;;;;6.75;6.05;;;18.70;99.90;;;;;;5108625;28;20067;-80
2022/09/06 04:43:08;;;;;;;6.80;6.05;;;18.70;99.90;;;;;;5107407;28;20100;-80
2022/09/06 04:45:34;;;;;;;8.32;6.22;;;18.70;99.90;;;;;;5096738;28;20490;-80
2022/09/06 04:47:59;;;;;;;7.38;5.90;;;18.70;99.90;;;;;;5108912;28;20031;-80
2022/09/06 04:50:25;;;;;;;6.93;6.10;;;18.80;99.90;;;;;;5109144;28;20028;-80
2022/09/06 04:52:50;;;;;;;9.20;6.07;;;18.80;99.90;;;;;;5089343;28;20038;-80
2022/09/06 04:55:16;;;;;;;7.57;6.35;;;18.80;99.90;;;;;;5109236;28;20038;-80
2022/09/06 04:57:41;;;;;;;8.35;6.20;;;18.80;99.90;;;;;;5104757;28;20036;-80
2022/09/06 05:00:08;;;;;;;8.50;6.30;;;18.70;99.90;;;;;;5082786;28;20032;-81
2022/09/06 05:02:34;;;;;;;6.90;6.20;;;18.70;99.90;;;;;;5107638;28;20042;-80
2022/09/06 05:04:59;;;;;;;7.70;7.00;;;18.70;99.90;;;;;;5107989;28;20524;-81
2022/09/06 05:07:25;;;;;;;8.95;6.72;;;18.60;99.90;;;;;;5102690;28;20485;-81
2022/09/06 05:09:50;;;;;;;6.95;6.25;;;18.40;99.90;;;;;;5104720;28;20037;-80
2022/09/06 05:12:16;;;;;;;10.05;6.90;;;18.30;99.90;;;;;;5110897;28;20039;-80
2022/09/06 05:14:41;;;;;;;8.30;7.40;;;18.30;99.90;;;;;;5112023;28;20652;-81
2022/09/06 05:17:07;;;;;;;7.72;7.00;;;18.20;99.90;;;;;;5107567;28;20060;-80
2022/09/06 05:19:32;;;;;;;8.45;7.07;;;18.20;99.90;;;;;;5108988;28;20039;-80
2022/09/06 05:21:58;;;;;;;11.82;7.00;;;18.30;99.90;;;;;;5108921;28;20044;-79
2022/09/06 05:24:23;;;;;;;13.25;7.93;;;18.30;99.90;;;;;;5107013;28;20036;-80
2022/09/06 05:26:49;;;;;;;10.98;7.68;;;18.30;99.90;;;;;;5108496;28;20036;-79
2022/09/06 05:29:14;;;;;;;10.65;7.35;;;18.30;99.90;;;;;;5105727;28;20043;-80
2022/09/06 05:31:40;;;;;;;9.95;8.15;;;18.30;99.90;;;;;;5110426;28;20355;-80
2022/09/06 05:34:05;;;;;;;11.43;8.25;;;18.30;99.90;;;;;;5110809;28;20423;-79
2022/09/06 05:36:31;;;;;;;10.50;7.88;;;18.30;99.90;;;;;;5107385;28;20383;-79
2022/09/06 05:38:57;;;;;;;9.88;7.50;;;18.30;99.90;;;;;;5088291;28;20501;-79
2022/09/06 05:41:24;;;;;;;8.55;7.65;;;18.40;99.90;;;;;;5110330;28;20042;-80
2022/09/06 05:43:49;;;;;;;10.13;8.07;;;18.40;99.90;;;;;;5109836;28;20110;-80
2022/09/06 05:46:15;;;;;;;8.85;7.95;;;18.40;99.90;;;;;;5102239;28;20129;-80
2022/09/06 05:48:41;;;;;;;11.50;8.30;;;18.40;99.90;;;;;;5091635;28;20668;-79
2022/09/06 05:51:12;;;;;;;8.43;7.43;;;18.40;99.90;;;;;;5105596;28;20046;-81
2022/09/06 05:53:44;;;;;;;8.93;8.05;;;18.40;99.90;;;;;;5105506;28;20489;-80
2022/09/06 05:56:12;;;;;;;11.98;7.95;;;18.40;99.90;;;;;;5102800;28;20031;-80
2022/09/06 05:58:38;;;;;;;9.23;8.27;;;18.40;99.90;;;;;;5097846;28;20490;-80
2022/09/06 06:01:16;;;;;;;11.60;8.18;;;18.40;99.90;;;;;;5091437;28;20089;-80
2022/09/06 06:03:48;;;;;;;9.80;8.85;;;18.50;99.90;;;;;;5092461;28;20050;-79
2022/09/06 06:06:13;;;;;;;10.85;9.40;;;18.50;99.90;;;;;;5090866;28;20130;-79
2022/09/06 06:08:39;;;;;;;10.43;9.15;;;18.40;99.90;;;;;;5091658;28;20074;-80
2022/09/06 06:11:04;;;;;;;9.90;8.88;;;18.40;99.90;;;;;;5092235;28;20529;-80
2022/09/06 06:13:33;;;;;;;9.40;8.50;;;18.40;99.90;;;;;;5093215;28;20082;-81
2022/09/06 06:15:59;;;;;;;10.13;9.10;;;18.40;99.90;;;;;;5092701;28;20044;-81
2022/09/06 06:18:25;;;;;;;10.40;9.25;;;18.50;99.90;;;;;;5092782;28;20036;-81
2022/09/06 06:20:50;;;;;;;10.63;9.55;;;18.50;99.90;;;;;;5114183;28;20099;-80
2022/09/06 06:23:16;;;;;;;12.38;9.13;;;18.40;99.90;;;;;;5103207;28;20131;-80
2022/09/06 06:25:41;;;;;;;10.35;9.40;;;18.50;99.90;;;;;;5092418;28;20518;-80
2022/09/06 06:28:07;;;;;;;10.25;9.23;;;18.50;99.90;;;;;;5092139;28;20470;-80
2022/09/06 06:30:32;;;;;;;10.48;9.07;;;18.40;99.90;;;;;;5103708;28;20035;-80
2022/09/06 06:32:59;;;;;;;11.18;9.55;;;18.50;99.90;;;;;;5106635;28;20608;-80
2022/09/06 06:35:24;;;;;;;13.43;8.88;;;18.50;99.90;;;;;;5098243;28;20040;-81
2022/09/06 06:37:50;;;;;;;11.88;8.95;;;18.50;99.90;;;;;;5076793;28;20632;-81
2022/09/06 06:40:15;;;;;;;10.60;9.57;;;18.50;99.90;;;;;;5096579;28;20068;-80
2022/09/06 06:42:41;;;;;;;10.35;9.25;;;18.50;99.90;;;;;;5106715;28;20504;-80
2022/09/06 06:45:07;;;;;;;10.23;9.23;;;18.60;99.90;;;;;;5104326;28;20126;-80
2022/09/06 06:47:32;;;;;;;10.30;9.30;;;18.60;99.90;;;;;;5101582;28;20078;-80
2022/09/06 06:49:58;;;;;;;10.18;9.18;;;18.60;99.90;;;;;;5100103;28;20143;-79
2022/09/06 06:52:24;;;;;;;10.52;9.52;;;18.60;99.90;;;;;;5105459;28;20468;-78
2022/09/06 06:54:50;;;;;;;10.32;9.15;;;18.70;99.90;;;;;;5109113;28;20070;-80
2022/09/06 06:57:15;;;;;;;11.00;9.80;;;18.70;99.90;;;;;;5111249;28;20046;-78
2022/09/06 06:59:41;;;;;;;13.13;9.60;;;18.80;99.90;;;;;;5090552;28;20068;-81
2022/09/06 07:02:06;;;;;;;10.60;9.55;;;18.80;99.90;;;;;;5103945;28;20024;-81
2022/09/06 07:04:32;;;;;;;13.45;8.80;;;18.80;99.90;;;;;;5107345;28;20047;-79
2022/09/06 07:06:57;;;;;;;9.77;8.77;;;18.80;99.90;;;;;;5099137;28;20043;-79
2022/09/06 07:09:23;;;;;;;13.82;9.15;;;18.90;99.90;;;;;;5102387;28;20043;-80
2022/09/06 07:11:49;;;;;;;10.45;9.25;;;19.00;99.90;;;;;;5093352;28;20043;-80
2022/09/06 07:14:18;;;;;;;11.57;9.23;;;19.00;99.90;;;;;;5101907;28;20417;-78
2022/09/06 07:16:44;;;;;;;9.90;8.95;;;19.20;99.90;;;;;;5082831;28;20443;-79
2022/09/06 07:19:10;;;;;;;10.50;8.85;;;19.30;99.90;;;;;;5090629;28;20036;-81
2022/09/06 07:21:35;;;;;;;10.07;8.77;;;19.30;99.90;;;;;;5081296;28;20082;-80
2022/09/06 07:24:02;;;;;;;15.02;9.60;;;19.50;99.90;;;;;;5105435;28;20071;-80
2022/09/06 07:26:29;;;;;;;10.65;9.27;;;19.80;99.90;;;;;;5076991;28;20122;-79
2022/09/06 07:28:57;;;;;;;10.57;8.88;;;20.10;99.90;;;;;;5094063;28;20711;-79
2022/09/06 07:31:23;;;;;;;9.00;8.18;;;20.30;99.90;;;;;;5094095;28;20123;-80
2022/09/06 07:33:49;;;;;;;9.82;8.82;;;20.50;99.90;;;;;;5093849;28;20490;-80
2022/09/06 07:36:15;;;;;;;10.18;8.65;;;20.60;99.90;;;;;;5094711;28;20057;-77
2022/09/06 07:38:40;;;;;;;11.90;9.00;;;20.80;99.90;;;;;;5095883;28;20035;-82
2022/09/06 07:41:09;;;;;;;10.38;8.98;;;20.90;99.90;;;;;;5105403;28;20040;-81
2022/09/06 07:43:35;;;;;;;11.52;9.00;;;21.20;99.90;;;;;;5098711;28;20161;-79
2022/09/06 07:46:05;;;;;;;10.55;9.55;;;21.30;99.90;;;;;;5109858;28;20040;-81
2022/09/06 07:48:33;;;;;;;11.32;9.30;;;21.20;99.90;;;;;;5112569;28;20071;-78
2022/09/06 07:51:10;;;;;;;10.07;9.18;;;21.30;99.90;;;;;;5113602;28;20043;-79
2022/09/06 07:53:37;;;;;;;11.73;8.70;;;21.20;99.90;;;;;;5114136;28;20089;-79
2022/09/06 07:56:05;;;;;;;12.48;8.70;;;21.30;99.90;;;;;;5099009;28;20047;-80
2022/09/06 07:58:31;;;;;;;9.85;8.65;;;21.40;99.90;;;;;;5095207;28;20494;-82
2022/09/06 08:01:25;;;;;;;11.20;9.00;;;21.70;99.90;;;;;;5112956;28;20040;-80
2022/09/06 08:03:50;;;;;;;10.15;8.93;;;21.80;99.90;;;;;;5097203;28;20118;-79
2022/09/06 08:06:16;;;;;;;10.23;9.23;;;22.00;99.90;;;;;;5095904;28;20562;-81
2022/09/06 08:08:42;;;;;;;11.13;9.48;;;22.00;99.90;;;;;;5094485;28;20069;-79
2022/09/06 08:11:08;;;;;;;10.90;9.45;;;21.80;99.90;;;;;;5091994;28;20043;-80
2022/09/06 08:13:35;;;;;;;10.27;9.25;;;21.70;99.90;;;;;;5113759;28;20118;-82
2022/09/06 08:16:02;;;;;;;11.98;9.27;;;21.70;99.90;;;;;;5111401;28;20439;-81
2022/09/06 08:18:28;;;;;;;11.05;9.27;;;21.80;99.90;;;;;;5111858;28;20099;-82
2022/09/06 08:20:53;;;;;;;13.32;9.50;;;22.00;99.90;;;;;;5113908;28;20059;-81
2022/09/06 08:23:19;;;;;;;13.13;9.82;;;22.10;99.90;;;;;;5111811;28;20035;-82
2022/09/06 08:25:55;;;;;;;10.15;9.02;;;22.30;99.90;;;;;;5085685;28;20038;-80
2022/09/06 08:28:21;;;;;;;13.13;10.15;;;22.40;99.90;;;;;;5111950;28;20122;-81
2022/09/06 08:30:47;;;;;;;11.07;9.13;;;22.50;99.90;;;;;;5079371;28;20062;-81
2022/09/06 08:33:12;;;;;;;10.48;9.38;;;22.70;99.90;;;;;;5083313;28;20112;-81
2022/09/06 08:35:38;;;;;;;12.55;9.85;;;22.80;99.90;;;;;;5107274;28;20078;-81
2022/09/06 08:38:04;;;;;;;10.63;9.52;;;22.90;99.90;;;;;;5097094;28;20040;-80
2022/09/06 08:40:31;;;;;;;10.52;9.52;;;23.00;99.90;;;;;;5094742;28;20043;-79
2022/09/06 08:42:57;;;;;;;10.70;9.68;;;23.00;99.90;;;;;;5095429;28;20122;-81
2022/09/06 08:45:23;;;;;;;10.80;9.70;;;23.10;99.90;;;;;;5077062;28;20071;-80
2022/09/06 08:47:51;;;;;;;13.45;9.82;;;23.10;99.90;;;;;;5102453;28;20066;-82
2022/09/06 08:50:17;;;;;;;10.48;9.27;;;23.10;99.90;;;;;;5077526;28;20043;-81
2022/09/06 08:53:01;;;;;;;10.07;9.07;;;23.10;99.90;;;;;;5107442;28;20500;-82
2022/09/06 08:55:38;;;;;;;11.68;9.35;;;23.10;99.90;;;;;;5109294;28;20088;-81
2022/09/06 08:58:23;;;;;;;10.43;9.38;;;23.20;99.90;;;;;;5113939;28;20042;-79
2022/09/06 09:00:57;;;;;;;10.73;9.63;;;23.30;99.90;;;;;;5097977;28;20083;-80
2022/09/06 09:03:35;;;;;;;10.07;8.32;;;23.20;99.90;;;;;;5090960;28;20074;-82
2022/09/06 09:06:04;;;;;;;9.98;9.05;;;23.20;99.90;;;;;;5074597;28;20036;-80
2022/09/06 09:08:40;;;;;;;10.32;9.32;;;23.00;99.90;;;;;;5102198;28;20405;-82
2022/09/06 09:11:10;;;;;;;10.77;9.68;;;22.80;99.90;;;;;;5088319;28;20044;-81
2022/09/06 09:13:51;;;;;;;11.50;9.60;;;22.80;99.90;;;;;;5105861;28;20036;-83
2022/09/06 09:16:17;;;;;;;10.57;9.57;;;22.80;99.90;;;;;;5095575;28;20489;-83
2022/09/06 09:18:48;;;;;;;10.50;9.32;;;22.80;99.90;;;;;;5104329;28;20032;-80
2022/09/06 09:21:19;;;;;;;11.52;8.98;;;22.90;99.90;;;;;;5110639;28;20435;-81
2022/09/06 09:23:54;;;;;;;11.07;9.70;;;22.90;99.90;;;;;;5092472;28;20051;-82
2022/09/06 09:26:22;;;;;;;13.13;9.95;;;22.80;99.90;;;;;;5074517;28;20498;-83
2022/09/06 09:29:06;;;;;;;13.80;9.60;;;22.70;99.90;;;;;;5110703;28;20047;-82
2022/09/06 09:31:40;;;;;;;12.38;9.80;;;22.70;99.90;;;;;;5101918;28;20036;-79
2022/09/06 09:34:26;;;;;;;10.43;9.38;;;22.90;99.90;;;;;;5096864;28;20044;-80
2022/09/06 09:37:12;;;;;;;14.77;9.23;;;23.20;99.90;;;;;;5104847;28;20513;-81
2022/09/06 09:39:39;;;;;;;9.77;8.52;;;23.50;99.90;;;;;;5082889;28;20036;-81
2022/09/06 09:42:07;;;;;;;9.23;8.18;;;23.80;99.90;;;;;;5092868;28;20397;-81
2022/09/06 09:44:33;;;;;;;9.82;8.75;;;24.00;99.90;;;;;;5075523;28;20119;-80
2022/09/06 09:46:58;;;;;;;9.93;8.18;;;24.10;99.90;;;;;;5092667;28;20134;-80
2022/09/06 09:49:24;;;;;;;11.23;8.48;;;24.10;99.90;;;;;;5101609;28;20051;-80
2022/09/06 09:52:10;;;;;;;10.27;8.90;;;24.20;99.90;;;;;;5112776;28;20035;-80
2022/09/06 09:54:40;;;;;;;10.60;8.32;;;24.20;99.90;;;;;;5099782;28;20035;-78
2022/09/06 09:57:16;;;;;;;10.55;7.93;;;24.20;99.90;;;;;;5099847;28;20127;-80
2022/09/06 09:59:56;;;;;;;11.23;8.52;;;24.20;99.90;;;;;;5092569;28;20036;-79
2022/09/06 10:02:51;;;;;;;9.60;7.68;;;24.30;99.90;;;;;;5091507;28;20602;-79
2022/09/06 10:05:20;;;;;;;10.18;7.95;;;24.40;99.90;;;;;;5081955;28;20088;-81
2022/09/06 10:07:48;;;;;;;11.40;8.20;;;24.50;99.80;;;;;;5110761;28;20077;-80
2022/09/06 10:10:24;;;;;;;8.77;7.40;;;24.50;99.80;;;;;;5108685;28;20067;-79
2022/09/06 10:13:07;;;;;;;11.85;7.65;;;24.60;99.50;;;;;;5100908;28;20556;-80
2022/09/06 10:15:35;;;;;;;12.18;8.05;;;24.70;99.50;;;;;;5114502;28;20477;-79
2022/09/06 10:18:01;;;;;;;10.48;8.40;;;24.70;99.40;;;;;;5110037;28;20401;-80
2022/09/06 10:20:41;;;;;;;10.18;7.97;;;24.90;99.30;;;;;;5094182;28;20044;-80
2022/09/06 10:23:28;;;;;;;12.23;9.63;;;24.90;99.10;;;;;;5097021;28;20051;-81
2022/09/06 10:25:59;;;;;;;11.10;10.00;;;25.00;99.30;;;;;;5084192;28;20409;-80
2022/09/06 10:28:37;;;;;;;12.30;10.32;;;25.20;99.20;;;;;;5106857;28;20040;-80
2022/09/06 10:31:16;;;;;;;14.48;10.13;;;25.20;99.00;;;;;;5085187;28;20118;-81
2022/09/06 10:34:11;;;;;;;10.80;9.70;;;25.30;99.00;;;;;;5112591;28;20075;-80
2022/09/06 10:36:53;;;;;;;13.20;10.32;;;25.40;99.10;;;;;;5084643;28;20413;-80
2022/09/06 10:39:39;;;;;;;12.90;10.18;;;25.40;98.80;;;;;;5108816;28;20126;-81
2022/09/06 10:42:18;;;;;;;11.40;10.20;;;25.50;98.80;;;;;;5104010;28;20047;-83
2022/09/06 10:45:21;;;;;;;13.13;10.43;;;25.60;98.70;;;;;;5112482;28;20052;-81
2022/09/06 10:47:54;;;;;;;21.48;10.77;;;25.70;98.50;;;;;;5102365;28;20027;-81
2022/09/06 10:50:35;;;;;;;14.10;10.23;;;25.80;98.40;;;;;;5113405;28;20439;-80
2022/09/06 10:53:20;;;;;;;16.67;10.70;;;25.90;98.30;;;;;;5115319;28;20035;-82
2022/09/06 10:55:51;;;;;;;13.50;10.30;;;25.90;98.20;;;;;;5101519;28;20409;-80
2022/09/06 10:58:26;;;;;;;15.05;10.80;;;25.90;98.10;;;;;;5094845;28;20032;-81
2022/09/06 11:00:53;;;;;;;16.20;10.32;;;26.00;98.10;;;;;;5097619;28;20059;-78
2022/09/06 11:03:34;;;;;;;13.45;10.35;;;26.10;98.10;;;;;;5095183;28;20514;-81
2022/09/06 11:06:08;;;;;;;12.95;9.40;;;26.20;97.90;;;;;;5090267;28;20552;-80
2022/09/06 11:08:49;;;;;;;10.77;9.60;;;26.30;97.90;;;;;;5109750;28;20043;-83
2022/09/06 11:11:25;;;;;;;12.15;8.40;;;26.40;97.70;;;;;;5096362;28;20044;-80
2022/09/06 11:13:50;;;;;;;14.00;8.68;;;26.60;97.50;;;;;;5099159;28;20035;-82
2022/09/06 11:16:30;;;;;;;10.15;8.70;;;26.70;97.20;;;;;;5109859;28;20057;-82
2022/09/06 11:19:06;;;;;;;9.32;8.07;;;26.90;96.80;;;;;;5099445;28;20035;-81
2022/09/06 11:21:44;;;;;;;9.38;7.90;;;27.00;96.70;;;;;;5099351;28;20066;-80
2022/09/06 11:24:12;;;;;;;10.23;6.75;;;27.20;96.70;;;;;;5104990;28;20111;-81
2022/09/06 11:27:05;;;;;;;9.85;7.65;;;27.40;96.90;;;;;;5111092;28;20501;-81
2022/09/06 11:29:33;;;;;;;9.23;7.20;;;27.60;96.40;;;;;;5115577;28;20521;-81
2022/09/06 11:32:00;;;;;;;9.15;7.70;;;27.70;96.10;;;;;;5112650;28;20047;-81
2022/09/06 11:34:32;;;;;;;8.45;6.70;;;27.90;95.90;;;;;;5098661;28;20058;-82
2022/09/06 11:37:05;;;;;;;10.48;6.88;;;28.10;95.70;;;;;;5114693;28;20036;-82
2022/09/06 11:39:37;;;;;;;9.10;8.05;;;28.30;95.50;;;;;;5112697;28;20035;-80
2022/09/06 11:42:07;;;;;;;9.63;7.80;;;28.60;95.20;;;;;;5112165;28;20040;-80
2022/09/06 11:44:48;;;;;;;10.02;7.25;;;28.80;95.00;;;;;;5099095;28;20047;-84
2022/09/06 11:47:42;;;;;;;10.10;7.10;;;28.90;94.60;;;;;;5115674;28;20047;-81
2022/09/06 11:50:51;;;;;;;11.35;6.40;;;29.00;94.50;;;;;;5100725;28;20044;-81
2022/09/06 11:53:17;;;;;;;8.02;5.40;;;29.20;94.10;;;;;;5086808;28;20043;-79
2022/09/06 11:55:47;;;;;;;7.45;5.60;;;29.30;94.10;;;;;;5111386;28;20050;-83
2022/09/06 11:58:16;;;;;;;7.00;5.72;;;29.40;93.90;;;;;;5112899;28;20095;-81
2022/09/06 12:01:02;;;;;;;6.45;5.45;;;29.40;93.10;;;;;;5106816;28;20522;-81
2022/09/06 12:03:46;;;;;;;9.32;5.85;;;29.40;93.30;;;;;;5109750;28;20040;-81
2022/09/06 12:06:14;;;;;;;8.25;5.22;;;29.50;92.80;;;;;;5104194;28;20365;-83
2022/09/06 12:08:40;;;;;;;8.90;6.00;;;29.50;92.90;;;;;;5112991;27;20743;-81
2022/09/06 12:11:27;;;;;;;5.95;4.90;;;29.50;92.80;;;;;;5120078;27;20409;-80
2022/09/06 12:14:27;;;;;;;5.72;4.72;;;29.60;92.50;;;;;;5116181;28;20043;-83
2022/09/06 12:17:03;;;;;;;4.90;4.40;;;29.80;92.90;;;;;;5084761;28;20040;-81
2022/09/06 12:19:47;;;;;;;12.05;4.30;;;29.80;92.60;;;;;;5113731;28;20050;-81
2022/09/06 12:22:28;;;;;;;9.05;4.15;;;29.90;91.00;;;;;;5107660;28;20141;-81
2022/09/06 12:24:59;;;;;;;4.45;4.05;;;30.00;91.50;;;;;;5096651;28;20036;-82
2022/09/06 12:27:49;;;;;;;5.60;3.70;;;30.00;91.50;;;;;;5103711;28;20036;-83
2022/09/06 12:30:43;;;;;;;4.32;3.90;;;30.20;91.50;;;;;;5084544;28;20047;-81
2022/09/06 12:33:29;;;;;;;10.45;4.13;;;30.20;91.40;;;;;;5081821;28;20048;-82
2022/09/06 12:36:21;;;;;;;8.05;4.20;;;30.20;91.10;;;;;;5104177;28;20024;-82
2022/09/06 12:38:57;;;;;;;6.03;4.13;;;30.30;91.20;;;;;;5093236;28;20109;-84
2022/09/06 12:41:24;;;;;;;7.38;3.95;;;30.20;90.50;;;;;;5109741;28;20069;-83
2022/09/06 12:43:52;;;;;;;4.57;3.65;;;30.20;90.70;;;;;;5105040;28;20036;-83
2022/09/06 12:46:17;;;;;;;6.78;3.47;;;30.40;90.60;;;;;;5107696;28;20495;-84
2022/09/06 12:48:59;;;;;;;5.95;3.28;;;30.50;90.60;;;;;;5102279;28;20039;-84
2022/09/06 12:51:25;;;;;;;6.85;3.97;;;30.60;90.50;;;;;;5111943;28;20102;-82
2022/09/06 12:53:57;;;;;;;5.15;4.00;;;30.70;90.40;;;;;;5111940;28;20032;-82
2022/09/06 12:56:25;;;;;;;5.03;3.90;;;30.70;90.10;;;;;;5109561;28;20039;-82
2022/09/06 12:58:51;;;;;;;4.63;3.75;;;30.80;90.30;;;;;;5103841;28;20501;-83
2022/09/06 13:01:30;;;;;;;7.28;3.60;;;30.90;90.20;;;;;;5109909;28;20038;-81